Time;durP1;ratioP1;P1;durP2;ratioP2;P2;SDS_P1;SDS_P2;PMS_P1;PMS_P2;Temp;Humidity;BMP_temperature;BMP_pressure;BME280_temperature;BME280_humidity;BME280_pressure;Samples;Min_cycle;Max_cycle;Signal;HPM_P1;HPM_P2
2021/11/21 00:01:01;;;;;;;33.45;20.90;;;;;;;6.27;82.88;100463.69;5090601;28;20429;-81
2021/11/21 00:03:26;;;;;;;38.22;22.45;;;;;;;6.23;83.29;100467.84;5072936;28;20413;-81
2021/11/21 00:05:52;;;;;;;31.87;20.77;;;;;;;6.22;83.32;100453.56;5091078;28;20386;-80
2021/11/21 00:08:17;;;;;;;28.83;20.10;;;;;;;6.18;83.20;100454.22;5072695;28;20853;-80
2021/11/21 00:10:42;;;;;;;29.90;20.13;;;;;;;6.07;83.43;100453.03;5090514;28;20398;-80
2021/11/21 00:13:09;;;;;;;32.33;21.23;;;;;;;6.00;83.25;100456.78;5093899;28;20752;-80
2021/11/21 00:15:34;;;;;;;30.25;21.10;;;;;;;6.10;82.18;100449.91;5092308;28;20405;-80
2021/11/21 00:18:01;;;;;;;28.70;20.15;;;;;;;6.19;82.49;100454.00;5094006;28;20956;-80
2021/11/21 00:20:27;;;;;;;30.95;21.73;;;;;;;6.24;81.86;100448.81;5092258;28;20482;-81
2021/11/21 00:22:52;;;;;;;30.33;20.43;;;;;;;6.28;81.58;100448.38;5092770;28;20414;-80
2021/11/21 00:25:18;;;;;;;36.33;22.23;;;;;;;6.24;81.44;100447.97;5091567;28;20932;-80
2021/11/21 00:27:43;;;;;;;31.20;22.17;;;;;;;6.26;81.12;100440.50;5091567;28;20410;-80
2021/11/21 00:30:09;;;;;;;32.22;20.55;;;;;;;6.30;81.52;100438.19;5092118;28;20410;-80
2021/11/21 00:32:34;;;;;;;31.65;21.02;;;;;;;6.26;81.72;100432.41;5084916;28;20406;-81
2021/11/21 00:34:59;;;;;;;31.20;22.03;;;;;;;6.30;81.60;100422.88;5088670;28;20769;-80
2021/11/21 00:37:27;;;;;;;29.10;21.17;;;;;;;6.34;81.51;100418.72;5090992;28;20405;-80
2021/11/21 00:39:53;;;;;;;29.20;20.00;;;;;;;6.34;81.58;100413.31;5092192;28;20406;-80
2021/11/21 00:42:18;;;;;;;30.10;20.37;;;;;;;6.30;81.48;100414.81;5093873;28;20722;-80
2021/11/21 00:44:44;;;;;;;28.67;20.60;;;;;;;6.36;80.68;100411.22;5092729;28;20394;-80
2021/11/21 00:47:10;;;;;;;29.60;20.70;;;;;;;6.32;80.47;100412.75;5093712;28;20402;-80
2021/11/21 00:49:36;;;;;;;26.67;19.42;;;;;;;6.32;80.83;100417.28;5093791;28;20406;-80
2021/11/21 00:52:02;;;;;;;26.88;20.13;;;;;;;6.23;81.24;100412.16;5093336;28;20482;-80
2021/11/21 00:54:39;;;;;;;26.88;19.85;;;;;;;6.22;81.95;100405.13;5082851;28;20487;-80
2021/11/21 00:57:05;;;;;;;27.35;19.35;;;;;;;6.20;82.18;100395.63;5075647;28;20385;-81
2021/11/21 00:59:31;;;;;;;25.00;18.55;;;;;;;6.19;81.83;100397.47;5091450;28;20387;-80
2021/11/21 01:01:57;;;;;;;26.50;19.35;;;;;;;6.23;81.24;100395.19;5082897;28;20586;-81
2021/11/21 01:04:22;;;;;;;26.83;19.88;;;;;;;6.21;81.16;100394.59;5093554;28;20398;-80
2021/11/21 01:06:48;;;;;;;25.73;19.37;;;;;;;6.22;81.22;100386.28;5093661;28;20471;-80
2021/11/21 01:09:14;;;;;;;25.63;19.02;;;;;;;6.21;80.91;100383.81;5092811;28;20504;-80
2021/11/21 01:11:40;;;;;;;26.17;19.88;;;;;;;6.18;81.20;100387.78;5093536;28;20711;-80
2021/11/21 01:14:06;;;;;;;25.40;20.02;;;;;;;6.16;80.94;100386.31;5093318;28;20386;-80
2021/11/21 01:16:32;;;;;;;26.63;20.08;;;;;;;6.05;81.43;100377.13;5091759;28;20398;-80
2021/11/21 01:18:58;;;;;;;23.27;19.05;;;;;;;6.07;81.13;100380.41;5072524;28;20416;-80
2021/11/21 01:21:23;;;;;;;28.70;20.73;;;;;;;6.10;81.68;100385.34;5091503;28;20684;-81
2021/11/21 01:23:49;;;;;;;26.23;19.95;;;;;;;6.07;81.65;100385.78;5090676;28;20756;-80
2021/11/21 01:26:14;;;;;;;28.00;19.58;;;;;;;6.04;81.61;100393.47;5091035;28;20497;-80
2021/11/21 01:28:40;;;;;;;26.40;18.87;;;;;;;6.00;81.58;100406.50;5089025;28;20420;-80
2021/11/21 01:31:05;;;;;;;23.67;17.93;;;;;;;5.95;81.62;100398.28;5091638;28;20409;-80
2021/11/21 01:33:30;;;;;;;25.43;19.13;;;;;;;6.02;81.60;100406.31;5090178;28;20876;-80
2021/11/21 01:35:56;;;;;;;23.50;18.87;;;;;;;5.94;81.78;100393.94;5073703;28;20455;-80
2021/11/21 01:38:22;;;;;;;25.17;19.67;;;;;;;5.80;82.19;100391.50;5091245;28;20402;-80
2021/11/21 01:40:47;;;;;;;23.87;18.97;;;;;;;5.81;81.60;100387.78;5089287;28;20428;-80
2021/11/21 01:43:12;;;;;;;24.37;18.73;;;;;;;5.95;81.85;100384.00;5085310;28;20441;-80
2021/11/21 01:45:38;;;;;;;25.33;19.98;;;;;;;5.97;81.26;100384.59;5089636;28;20428;-81
2021/11/21 01:48:04;;;;;;;28.23;19.73;;;;;;;6.08;80.78;100373.97;5073285;28;20485;-80
2021/11/21 01:50:32;;;;;;;25.33;19.75;;;;;;;6.05;80.58;100374.41;5090826;28;20409;-80
2021/11/21 01:52:58;;;;;;;24.23;19.70;;;;;;;6.09;81.17;100364.84;5091807;28;20390;-81
2021/11/21 01:55:25;;;;;;;23.85;19.02;;;;;;;6.10;80.83;100369.19;5091622;28;20410;-80
2021/11/21 01:57:56;;;;;;;26.40;19.90;;;;;;;6.12;81.33;100369.81;5074270;28;20741;-80
2021/11/21 02:00:24;;;;;;;24.73;19.42;;;;;;;6.17;81.06;100369.97;5074173;28;20483;-80
2021/11/21 02:02:50;;;;;;;27.77;19.73;;;;;;;6.24;80.92;100361.84;5092285;28;20464;-80
2021/11/21 02:05:15;;;;;;;26.45;19.92;;;;;;;6.16;80.39;100351.34;5092382;28;20394;-80
2021/11/21 02:07:42;;;;;;;27.73;20.60;;;;;;;6.09;81.10;100350.59;5092236;28;20744;-80
2021/11/21 02:10:11;;;;;;;27.77;20.65;;;;;;;6.12;80.47;100351.00;5092398;28;20390;-80
2021/11/21 02:12:36;;;;;;;29.00;21.05;;;;;;;5.97;80.76;100346.94;5091124;28;20401;-81
2021/11/21 02:15:03;;;;;;;26.03;19.80;;;;;;;5.85;81.48;100346.78;5091333;28;20876;-80
2021/11/21 02:17:29;;;;;;;28.25;19.38;;;;;;;5.97;81.49;100341.56;5092168;28;20385;-81
2021/11/21 02:19:54;;;;;;;25.60;19.37;;;;;;;6.03;80.83;100343.38;5075810;28;20396;-81
2021/11/21 02:22:20;;;;;;;25.67;19.60;;;;;;;5.98;81.10;100335.97;5091955;28;20405;-80
2021/11/21 02:24:45;;;;;;;24.58;18.35;;;;;;;5.99;81.29;100331.44;5089771;28;20425;-80
2021/11/21 02:27:15;;;;;;;26.67;18.75;;;;;;;6.03;81.05;100328.06;5092189;28;20853;-80
2021/11/21 02:29:41;;;;;;;25.83;19.55;;;;;;;6.07;80.81;100339.22;5088358;28;20813;-80
2021/11/21 02:32:06;;;;;;;26.47;19.60;;;;;;;6.14;80.70;100329.22;5088916;28;20495;-80
2021/11/21 02:34:31;;;;;;;25.23;19.40;;;;;;;6.08;80.50;100328.25;5088576;28;20406;-80
2021/11/21 02:36:56;;;;;;;24.00;19.00;;;;;;;5.95;81.21;100312.22;5071201;28;20409;-80
2021/11/21 02:39:22;;;;;;;25.70;19.80;;;;;;;5.89;81.34;100309.56;5091143;28;20397;-80
2021/11/21 02:41:47;;;;;;;28.20;20.70;;;;;;;5.89;81.40;100309.56;5089752;28;20493;-80
2021/11/21 02:44:12;;;;;;;25.92;19.33;;;;;;;5.96;80.96;100308.47;5089269;28;20410;-80
2021/11/21 02:46:38;;;;;;;27.63;20.43;;;;;;;6.01;80.81;100295.19;5090611;28;20455;-80
2021/11/21 02:49:03;;;;;;;27.27;20.07;;;;;;;6.02;81.01;100291.47;5090069;28;20751;-80
2021/11/21 02:51:29;;;;;;;27.73;20.15;;;;;;;6.09;80.78;100294.91;5084982;28;20444;-80
2021/11/21 02:53:54;;;;;;;25.20;19.67;;;;;;;6.08;80.18;100281.69;5077216;28;20414;-80
2021/11/21 02:56:20;;;;;;;26.60;18.80;;;;;;;5.99;80.83;100288.38;5090742;28;20768;-80
2021/11/21 02:58:47;;;;;;;26.00;19.90;;;;;;;5.96;80.11;100280.75;5089649;28;20437;-80
2021/11/21 03:01:19;;;;;;;23.80;18.30;;;;;;;6.05;80.16;100280.28;5087232;28;20743;-80
2021/11/21 03:03:45;;;;;;;32.28;20.67;;;;;;;6.07;79.85;100280.84;5078812;28;20749;-80
2021/11/21 03:06:11;;;;;;;27.00;20.00;;;;;;;6.00;80.25;100277.41;5090363;28;20405;-80
2021/11/21 03:08:38;;;;;;;27.80;20.17;;;;;;;5.96;79.65;100276.19;5089399;28;20437;-80
2021/11/21 03:11:25;;;;;;;27.13;20.65;;;;;;;6.01;80.02;100273.66;5090053;28;20432;-80
2021/11/21 03:13:50;;;;;;;30.63;20.63;;;;;;;6.01;80.21;100272.84;5086426;28;20491;-80
2021/11/21 03:16:16;;;;;;;36.93;26.53;;;;;;;6.01;79.73;100273.66;5090212;28;20413;-80
2021/11/21 03:18:41;;;;;;;32.77;23.50;;;;;;;6.06;79.32;100273.81;5089692;28;20589;-80
2021/11/21 03:21:06;;;;;;;35.40;24.87;;;;;;;6.06;80.06;100273.81;5090327;28;20405;-80
2021/11/21 03:23:32;;;;;;;31.67;22.17;;;;;;;6.06;79.69;100276.50;5090019;28;20424;-80
2021/11/21 03:25:57;;;;;;;31.42;21.35;;;;;;;6.08;80.12;100269.06;5089113;28;20808;-80
2021/11/21 03:28:22;;;;;;;31.20;22.43;;;;;;;6.01;80.00;100262.91;5088034;28;20411;-80
2021/11/21 03:30:47;;;;;;;25.13;20.00;;;;;;;5.95;80.40;100261.09;5089028;28;20812;-80
2021/11/21 03:33:13;;;;;;;24.47;19.20;;;;;;;5.95;80.44;100257.59;5089126;28;20395;-80
2021/11/21 03:35:38;;;;;;;26.80;20.53;;;;;;;6.01;80.34;100259.41;5088144;28;20496;-80
2021/11/21 03:38:03;;;;;;;33.13;21.30;;;;;;;6.09;80.17;100248.38;5087408;28;20410;-80
2021/11/21 03:40:29;;;;;;;33.90;22.00;;;;;;;6.12;79.10;100250.63;5091105;28;20394;-80
2021/11/21 03:42:55;;;;;;;38.57;23.83;;;;;;;6.05;79.98;100239.09;5089855;28;20406;-80
2021/11/21 03:45:21;;;;;;;48.83;27.67;;;;;;;5.99;80.17;100250.72;5086747;28;20485;-80
2021/11/21 03:47:47;;;;;;;32.85;20.23;;;;;;;5.96;80.37;100251.19;5091111;28;20398;-80
2021/11/21 03:50:14;;;;;;;33.80;21.27;;;;;;;6.03;79.59;100250.06;5092935;28;20484;-80
2021/11/21 03:52:41;;;;;;;28.58;18.83;;;;;;;5.97;78.26;100240.19;5094634;28;20397;-80
2021/11/21 03:55:07;;;;;;;30.83;20.35;;;;;;;5.79;80.02;100242.78;5076553;28;20386;-80
2021/11/21 03:57:33;;;;;;;35.80;21.75;;;;;;;5.81;80.13;100237.19;5094857;28;20937;-80
2021/11/21 03:59:58;;;;;;;34.53;23.05;;;;;;;5.82;80.01;100239.66;5094572;28;20386;-80
2021/11/21 04:02:24;;;;;;;29.67;20.63;;;;;;;5.78;79.80;100230.38;5075612;28;20417;-80
2021/11/21 04:04:49;;;;;;;37.00;23.80;;;;;;;5.83;80.25;100233.22;5088898;28;20414;-80
2021/11/21 04:07:14;;;;;;;28.93;19.53;;;;;;;5.79;79.92;100232.03;5094437;28;20406;-80
2021/11/21 04:09:40;;;;;;;29.37;20.57;;;;;;;5.68;80.53;100235.44;5094276;28;20873;-80
2021/11/21 04:12:06;;;;;;;27.92;20.60;;;;;;;5.64;80.61;100232.34;5092546;28;20397;-80
2021/11/21 04:14:31;;;;;;;26.40;19.70;;;;;;;5.67;80.48;100229.22;5094330;28;20399;-80
2021/11/21 04:16:57;;;;;;;25.63;19.67;;;;;;;5.70;81.00;100230.63;5093942;28;20437;-80
2021/11/21 04:19:22;;;;;;;23.35;18.33;;;;;;;5.81;79.97;100227.25;5094613;28;20393;-80
2021/11/21 04:21:47;;;;;;;23.30;18.20;;;;;;;5.87;79.59;100225.56;5074077;28;20415;-80
2021/11/21 04:24:13;;;;;;;24.97;17.80;;;;;;;5.86;79.79;100223.94;5093153;28;20422;-80
2021/11/21 04:26:40;;;;;;;30.25;20.50;;;;;;;5.83;79.22;100218.97;5091627;28;20408;-80
2021/11/21 04:29:06;;;;;;;25.00;17.90;;;;;;;5.74;79.83;100213.03;5092222;28;20413;-80
2021/11/21 04:31:31;;;;;;;24.27;17.40;;;;;;;5.64;79.99;100223.47;5092595;28;20405;-80
2021/11/21 04:33:57;;;;;;;23.83;16.43;;;;;;;5.63;80.25;100213.75;5092804;28;20402;-80
2021/11/21 04:36:23;;;;;;;23.97;16.40;;;;;;;5.62;80.50;100212.13;5071524;28;20451;-80
2021/11/21 04:38:48;;;;;;;18.58;14.07;;;;;;;5.69;80.65;100202.97;5087710;28;20461;-80
2021/11/21 04:41:13;;;;;;;21.13;13.97;;;;;;;5.70;79.12;100209.13;5091876;28;20408;-80
2021/11/21 04:43:38;;;;;;;18.40;13.33;;;;;;;5.68;79.35;100193.25;5074470;28;20791;-80
2021/11/21 04:46:04;;;;;;;17.93;13.10;;;;;;;5.67;79.76;100190.75;5091105;28;20492;-80
2021/11/21 04:48:30;;;;;;;17.30;12.73;;;;;;;5.68;80.25;100181.66;5090071;28;20965;-80
2021/11/21 04:50:55;;;;;;;16.70;12.38;;;;;;;5.67;79.98;100177.31;5092828;28;20504;-80
2021/11/21 04:53:21;;;;;;;16.17;11.93;;;;;;;5.63;80.16;100174.25;5091934;28;20831;-80
2021/11/21 04:55:46;;;;;;;16.02;12.40;;;;;;;5.60;80.34;100181.91;5090429;28;20412;-80
2021/11/21 04:58:14;;;;;;;17.63;12.80;;;;;;;5.59;80.24;100185.66;5073017;28;20410;-80
2021/11/21 05:00:40;;;;;;;15.80;11.32;;;;;;;5.64;80.31;100186.66;5091833;28;20838;-80
2021/11/21 05:03:05;;;;;;;16.95;12.25;;;;;;;5.76;79.47;100189.47;5073210;28;20497;-80
2021/11/21 05:05:30;;;;;;;18.13;12.95;;;;;;;5.68;80.05;100181.66;5087247;28;20471;-80
2021/11/21 05:07:56;;;;;;;18.90;13.80;;;;;;;5.62;80.76;100175.31;5078523;28;20985;-80
2021/11/21 05:10:22;;;;;;;18.73;13.00;;;;;;;5.55;81.33;100176.38;5078701;28;20406;-80
2021/11/21 05:12:47;;;;;;;17.98;13.57;;;;;;;5.64;80.87;100169.69;5082920;28;20868;-80
2021/11/21 05:15:16;;;;;;;19.25;13.48;;;;;;;5.67;81.06;100182.69;5081109;28;20807;-80
2021/11/21 05:17:45;;;;;;;23.17;14.90;;;;;;;5.67;80.99;100180.00;5079414;28;20418;-80
2021/11/21 05:20:10;;;;;;;24.10;15.82;;;;;;;5.66;80.75;100173.00;5079799;28;20409;-79
2021/11/21 05:22:36;;;;;;;22.23;14.77;;;;;;;5.66;80.24;100165.72;5080081;28;20413;-80
2021/11/21 05:25:01;;;;;;;20.00;15.20;;;;;;;5.57;81.49;100172.44;5077360;28;20553;-80
2021/11/21 05:27:26;;;;;;;20.60;15.20;;;;;;;5.63;81.22;100165.38;5079309;28;20767;-81
2021/11/21 05:29:52;;;;;;;22.27;14.03;;;;;;;5.71;81.33;100165.09;5078830;28;20546;-80
2021/11/21 05:32:19;;;;;;;21.25;15.27;;;;;;;5.76;81.06;100168.75;5076661;28;20891;-80
2021/11/21 05:34:44;;;;;;;22.50;14.93;;;;;;;5.61;81.96;100164.75;5087677;28;20422;-81
2021/11/21 05:37:09;;;;;;;19.20;14.33;;;;;;;5.51;81.75;100175.19;5085249;28;20406;-80
2021/11/21 05:39:34;;;;;;;20.97;14.57;;;;;;;5.44;82.67;100169.03;5077975;28;20417;-80
2021/11/21 05:42:00;;;;;;;24.70;16.13;;;;;;;5.43;82.95;100170.91;5077920;28;20415;-80
2021/11/21 05:44:25;;;;;;;21.08;14.55;;;;;;;5.46;81.90;100167.78;5079585;28;20543;-80
2021/11/21 05:46:51;;;;;;;22.03;14.83;;;;;;;5.56;81.73;100165.44;5059488;28;20780;-80
2021/11/21 05:49:16;;;;;;;20.80;14.40;;;;;;;5.63;81.37;100170.75;5077559;28;20425;-80
2021/11/21 05:51:41;;;;;;;19.67;14.95;;;;;;;5.51;81.37;100164.41;5090141;28;20402;-80
2021/11/21 05:54:07;;;;;;;19.60;14.10;;;;;;;5.52;81.28;100164.22;5092088;28;20391;-80
2021/11/21 05:56:32;;;;;;;20.43;14.60;;;;;;;5.55;81.25;100158.41;5073846;28;20406;-80
2021/11/21 05:58:58;;;;;;;19.07;14.13;;;;;;;5.53;81.01;100151.59;5090354;28;20409;-80
2021/11/21 06:01:23;;;;;;;20.25;14.75;;;;;;;5.48;81.54;100149.56;5092143;28;20466;-80
2021/11/21 06:03:54;;;;;;;18.77;13.80;;;;;;;5.45;81.44;100165.31;5092449;28;20394;-80
2021/11/21 06:06:20;;;;;;;21.55;14.43;;;;;;;5.39;81.58;100161.63;5091222;28;20394;-80
2021/11/21 06:08:46;;;;;;;21.00;15.43;;;;;;;5.42;81.69;100168.44;5091692;28;20496;-80
2021/11/21 06:11:11;;;;;;;20.55;14.63;;;;;;;5.38;81.32;100169.91;5073815;28;20390;-79
2021/11/21 06:13:37;;;;;;;21.90;14.57;;;;;;;5.33;81.64;100173.25;5091575;28;20500;-80
2021/11/21 06:16:02;;;;;;;22.08;15.40;;;;;;;5.41;81.94;100170.28;5080173;28;20418;-80
2021/11/21 06:18:28;;;;;;;21.10;15.25;;;;;;;5.36;81.74;100172.00;5073353;28;20399;-80
2021/11/21 06:20:53;;;;;;;20.73;14.50;;;;;;;5.35;82.06;100173.03;5081245;28;20431;-80
2021/11/21 06:23:18;;;;;;;23.00;15.53;;;;;;;5.41;81.78;100178.34;5075601;28;20539;-80
2021/11/21 06:25:43;;;;;;;24.50;15.90;;;;;;;5.49;82.06;100180.78;5079784;28;20417;-79
2021/11/21 06:28:10;;;;;;;24.20;16.00;;;;;;;5.53;81.52;100171.22;5075898;28;20756;-79
2021/11/21 06:30:36;;;;;;;22.33;15.40;;;;;;;5.42;81.86;100174.63;5077263;28;20568;-81
2021/11/21 06:33:02;;;;;;;22.52;16.17;;;;;;;5.46;81.69;100172.34;5083577;28;20429;-80
2021/11/21 06:35:27;;;;;;;20.67;15.07;;;;;;;5.48;81.48;100181.81;5088640;28;20413;-80
2021/11/21 06:37:53;;;;;;;20.70;14.80;;;;;;;5.51;81.54;100180.53;5077868;28;20403;-79
2021/11/21 06:40:18;;;;;;;22.10;14.47;;;;;;;5.38;81.91;100181.47;5083215;28;20877;-80
2021/11/21 06:42:43;;;;;;;21.38;14.05;;;;;;;5.37;80.96;100179.81;5076245;28;20903;-80
2021/11/21 06:45:10;;;;;;;19.13;13.87;;;;;;;5.36;81.87;100185.44;5076448;28;20409;-79
2021/11/21 06:47:37;;;;;;;19.05;13.20;;;;;;;5.30;80.83;100186.31;5088161;28;20417;-80
2021/11/21 06:50:05;;;;;;;20.13;13.35;;;;;;;5.31;81.26;100186.06;5073630;28;20390;-80
2021/11/21 06:52:31;;;;;;;18.02;12.52;;;;;;;5.36;81.14;100188.94;5091036;28;20792;-79
2021/11/21 06:54:56;;;;;;;17.98;11.82;;;;;;;5.35;81.05;100198.03;5091841;28;20401;-79
2021/11/21 06:57:22;;;;;;;17.27;11.23;;;;;;;5.35;80.62;100191.84;5091281;28;20394;-80
2021/11/21 06:59:48;;;;;;;16.98;11.55;;;;;;;5.37;80.55;100195.94;5086485;28;20463;-79
2021/11/21 07:02:13;;;;;;;17.05;11.27;;;;;;;5.43;80.66;100202.34;5072232;28;20399;-79
2021/11/21 07:04:38;;;;;;;16.00;11.38;;;;;;;5.39;80.74;100198.44;5073153;28;20396;-80
2021/11/21 07:07:09;;;;;;;15.97;11.27;;;;;;;5.40;81.23;100200.88;5073327;28;20403;-80
2021/11/21 07:09:34;;;;;;;15.15;10.20;;;;;;;5.36;80.97;100196.19;5091046;28;20472;-79
2021/11/21 07:11:59;;;;;;;15.15;9.85;;;;;;;5.35;81.33;100197.22;5058856;28;20901;-80
2021/11/21 07:14:25;;;;;;;15.67;11.00;;;;;;;5.32;81.36;100190.41;5091129;28;20401;-80
2021/11/21 07:16:50;;;;;;;16.40;10.23;;;;;;;5.35;80.99;100194.53;5090773;28;20424;-79
2021/11/21 07:19:16;;;;;;;13.63;10.27;;;;;;;5.37;81.70;100198.63;5091449;28;20884;-80
2021/11/21 07:21:42;;;;;;;16.65;10.07;;;;;;;5.32;81.75;100205.72;5074015;28;20907;-80
2021/11/21 07:24:08;;;;;;;16.90;10.00;;;;;;;5.26;82.36;100202.03;5080539;28;20493;-80
2021/11/21 07:26:34;;;;;;;12.47;9.47;;;;;;;5.20;82.33;100201.00;5081828;28;20884;-80
2021/11/21 07:28:59;;;;;;;12.80;9.20;;;;;;;5.30;81.89;100199.75;5092890;28;20422;-79
2021/11/21 07:31:24;;;;;;;12.13;8.33;;;;;;;5.32;81.73;100200.34;5073147;28;20406;-80
2021/11/21 07:33:50;;;;;;;12.13;8.00;;;;;;;5.27;81.57;100197.47;5094167;28;20398;-80
2021/11/21 07:36:15;;;;;;;12.65;8.65;;;;;;;5.33;81.69;100197.44;5092462;28;20413;-80
2021/11/21 07:39:15;;;;;;;13.73;12.33;;;;;;;5.42;81.23;100206.88;5075488;28;20402;-80
2021/11/21 07:41:40;;;;;;;10.23;7.30;;;;;;;5.47;80.33;100211.59;4987178;28;20988;-81
2021/11/21 07:44:07;;;;;;;7.90;6.60;;;;;;;5.52;80.29;100209.91;5065079;28;20481;-81
2021/11/21 07:46:33;;;;;;;7.43;6.10;;;;;;;5.46;80.25;100202.72;5093997;28;20437;-81
2021/11/21 07:48:58;;;;;;;8.15;6.22;;;;;;;5.54;79.58;100201.63;5095027;28;20442;-80
2021/11/21 07:51:23;;;;;;;7.13;5.50;;;;;;;5.59;79.21;100191.88;5095053;28;20413;-80
2021/11/21 07:53:48;;;;;;;8.33;5.10;;;;;;;5.61;78.79;100191.63;5093234;28;20807;-81
2021/11/21 07:56:14;;;;;;;7.93;6.20;;;;;;;5.64;78.32;100194.72;5093868;28;20398;-80
2021/11/21 07:58:40;;;;;;;7.22;5.80;;;;;;;5.58;78.73;100195.59;5094452;28;20424;-80
2021/11/21 08:02:02;;;;;;;;;;;;;;;;;;;;;
2021/11/21 08:04:40;;;;;;;7.35;5.47;;;;;;;5.40;78.77;100198.19;5063390;28;20745;-80
2021/11/21 08:10:55;;;;;;;10.90;8.15;;;;;;;5.64;79.08;100201.94;5095196;28;20382;-81
2021/11/21 08:13:56;;;;;;;14.90;8.32;;;;;;;5.69;78.86;100199.44;5094551;28;20393;-80
2021/11/21 08:16:21;;;;;;;12.48;7.75;;;;;;;5.59;78.99;100202.63;5072020;28;20509;-79
2021/11/21 08:18:50;;;;;;;10.52;8.57;;;;;;;5.55;79.31;100200.59;5092138;28;20827;-83
2021/11/21 08:21:15;;;;;;;12.20;9.02;;;;;;;5.60;78.97;100198.88;5081505;28;20414;-81
2021/11/21 08:23:40;;;;;;;15.70;10.37;;;;;;;5.58;79.32;100198.28;5094086;28;20391;-81
2021/11/21 08:26:06;;;;;;;13.80;9.10;;;;;;;5.63;79.06;100192.25;5093094;28;20536;-78
2021/11/21 08:28:31;;;;;;;12.65;8.40;;;;;;;5.71;79.23;100190.09;5082028;28;20421;-82
2021/11/21 08:30:56;;;;;;;12.50;8.33;;;;;;;5.74;79.14;100181.59;5082778;28;20413;-81
2021/11/21 08:33:25;;;;;;;12.43;8.40;;;;;;;5.84;79.57;100188.34;5083766;28;20441;-80
2021/11/21 08:35:50;;;;;;;12.70;8.45;;;;;;;5.86;78.70;100191.69;5093178;28;20824;-80
2021/11/21 08:38:23;;;;;;;10.67;7.67;;;;;;;5.89;77.90;100191.22;5087452;28;20433;-80
2021/11/21 08:40:49;;;;;;;12.07;9.00;;;;;;;5.97;78.58;100190.94;5089423;28;20417;-79
2021/11/21 08:43:23;;;;;;;10.13;7.60;;;;;;;5.99;78.80;100184.31;5091879;28;20402;-79
2021/11/21 08:46:00;;;;;;;11.15;8.38;;;;;;;5.93;78.35;100184.38;5089248;28;20402;-79
2021/11/21 08:48:28;;;;;;;11.23;7.45;;;;;;;6.01;78.79;100181.38;5095577;28;20470;-79
2021/11/21 08:50:57;;;;;;;7.20;5.70;;;;;;;6.00;78.27;100179.72;5073478;28;20451;-79
2021/11/21 08:53:23;;;;;;;10.27;6.63;;;;;;;6.13;77.75;100177.75;5091058;28;20394;-79
2021/11/21 08:55:48;;;;;;;10.32;6.93;;;;;;;6.28;77.41;100177.38;5075652;28;20420;-79
2021/11/21 08:58:14;;;;;;;6.72;5.30;;;;;;;6.32;76.90;100175.06;5090877;28;20397;-79
2021/11/21 09:00:46;;;;;;;8.57;5.90;;;;;;;6.37;76.89;100165.28;5089714;28;20750;-79
2021/11/21 09:03:11;;;;;;;8.50;5.47;;;;;;;6.33;76.56;100166.75;5069378;28;20441;-79
2021/11/21 09:06:01;;;;;;;5.80;4.65;;;;;;;6.38;76.29;100164.25;5064790;28;20448;-79
2021/11/21 09:08:26;;;;;;;6.43;5.30;;;;;;;6.45;75.86;100161.47;5069537;28;20420;-79
2021/11/21 09:11:30;;;;;;;;;;;;;;;;;;;;;
2021/11/21 09:13:58;;;;;;;8.02;5.57;;;;;;;6.48;75.21;100159.16;5085016;28;20402;-80
2021/11/21 09:16:27;;;;;;;6.95;5.00;;;;;;;6.48;75.53;100158.31;5092589;28;20402;-78
2021/11/21 09:18:52;;;;;;;7.68;4.35;;;;;;;6.52;74.10;100160.31;5093643;28;20382;-80
2021/11/21 09:21:18;;;;;;;7.18;5.50;;;;;;;6.58;73.83;100154.06;5087867;28;20404;-79
2021/11/21 09:23:43;;;;;;;6.63;5.00;;;;;;;6.46;74.58;100161.22;5084280;28;20390;-79
2021/11/21 09:26:08;;;;;;;8.20;5.33;;;;;;;6.44;75.07;100157.13;5086842;28;20808;-80
2021/11/21 09:28:34;;;;;;;7.65;5.95;;;;;;;6.52;74.36;100151.44;5091431;28;20892;-80
2021/11/21 09:31:00;;;;;;;10.27;6.70;;;;;;;6.61;74.09;100161.69;5082575;28;20884;-80
2021/11/21 09:33:25;;;;;;;11.65;7.05;;;;;;;6.63;74.15;100162.25;5092436;28;20397;-79
2021/11/21 09:35:51;;;;;;;12.13;7.50;;;;;;;6.66;74.10;100155.59;5090161;28;20393;-80
2021/11/21 09:38:19;;;;;;;13.23;8.25;;;;;;;6.67;75.00;100150.00;5104440;28;20396;-79
2021/11/21 09:40:45;;;;;;;12.83;8.07;;;;;;;6.66;74.76;100152.91;5088647;28;20435;-79
2021/11/21 09:43:10;;;;;;;14.27;8.38;;;;;;;6.60;74.33;100165.41;5091674;28;20465;-79
2021/11/21 09:45:35;;;;;;;14.77;8.43;;;;;;;6.52;74.92;100159.53;5091176;28;20393;-79
2021/11/21 09:48:02;;;;;;;11.97;8.83;;;;;;;6.53;75.88;100161.16;5091694;28;20452;-79
2021/11/21 09:50:30;;;;;;;12.52;9.52;;;;;;;6.58;75.62;100158.63;5070370;28;20403;-80
2021/11/21 09:52:55;;;;;;;13.88;9.70;;;;;;;6.57;75.60;100165.88;5090206;28;20398;-81
2021/11/21 09:55:21;;;;;;;14.63;10.15;;;;;;;6.59;75.62;100160.25;5067054;28;20411;-80
2021/11/21 09:57:48;;;;;;;14.85;10.15;;;;;;;6.59;75.41;100155.69;5092402;28;20481;-80
2021/11/21 10:00:19;;;;;;;15.23;9.98;;;;;;;6.55;75.86;100149.09;5065870;28;20409;-79
2021/11/21 10:02:56;;;;;;;14.63;9.95;;;;;;;6.54;76.14;100143.94;5092024;28;20846;-79
2021/11/21 10:05:25;;;;;;;16.92;10.30;;;;;;;6.50;76.53;100140.88;5091196;28;20394;-80
2021/11/21 10:08:15;;;;;;;14.68;10.18;;;;;;;6.58;76.66;100140.59;5087644;28;20395;-80
2021/11/21 10:10:50;;;;;;;13.38;9.65;;;;;;;6.66;76.18;100140.25;5091467;28;20409;-81
2021/11/21 10:13:31;;;;;;;15.52;11.15;;;;;;;6.72;75.66;100136.66;5080510;28;21348;-80
2021/11/21 10:16:16;;;;;;;14.95;10.35;;;;;;;6.75;75.76;100130.81;5065985;28;20421;-80
2021/11/21 10:18:51;;;;;;;15.68;11.95;;;;;;;6.69;76.07;100128.22;5066600;28;20484;-80
2021/11/21 10:21:18;;;;;;;11.95;9.02;;;;;;;6.78;76.33;100122.28;5065636;28;20807;-80
2021/11/21 10:23:45;;;;;;;11.70;8.68;;;;;;;6.88;75.43;100115.53;5059911;28;20406;-81
2021/11/21 10:26:23;;;;;;;13.77;9.88;;;;;;;6.90;75.06;100106.19;5062857;28;20904;-80
2021/11/21 10:28:50;;;;;;;15.73;11.60;;;;;;;6.93;75.43;100111.09;5062866;28;20991;-81
2021/11/21 10:31:18;;;;;;;13.80;10.35;;;;;;;6.97;75.18;100103.38;5065526;28;20423;-79
2021/11/21 10:33:51;;;;;;;14.90;10.30;;;;;;;6.88;75.75;100099.38;5059187;28;20467;-80
2021/11/21 10:36:25;;;;;;;14.80;9.75;;;;;;;6.97;75.00;100101.53;5061544;28;20463;-81
2021/11/21 10:38:51;;;;;;;14.50;9.80;;;;;;;7.08;74.76;100095.31;5062404;28;20410;-81
2021/11/21 10:41:19;;;;;;;13.15;9.52;;;;;;;7.19;74.82;100093.72;5064358;28;20904;-81
2021/11/21 10:44:09;;;;;;;13.63;9.47;;;;;;;7.01;74.84;100088.41;5043177;28;20774;-81
2021/11/21 10:46:41;;;;;;;13.80;9.35;;;;;;;7.00;75.56;100084.88;5046688;28;20441;-81
2021/11/21 10:49:23;;;;;;;12.15;9.15;;;;;;;7.17;75.04;100091.25;5065589;28;20427;-81
2021/11/21 10:52:12;;;;;;;13.00;8.77;;;;;;;7.05;75.28;100076.91;5046965;28;20476;-81
2021/11/21 10:54:57;;;;;;;14.88;9.40;;;;;;;7.17;74.74;100083.19;5064770;28;20410;-81
2021/11/21 10:57:27;;;;;;;12.52;8.32;;;;;;;7.29;73.76;100081.31;5065366;28;20479;-80
2021/11/21 10:59:55;;;;;;;14.27;9.40;;;;;;;7.39;73.77;100074.50;5064896;28;20433;-81
2021/11/21 11:02:24;;;;;;;13.68;9.00;;;;;;;7.46;73.22;100072.53;5072304;28;20418;-81
2021/11/21 11:05:25;;;;;;;20.48;15.93;;;;;;;7.45;73.21;100071.69;5065498;28;20801;-81
2021/11/21 11:07:56;;;;;;;11.85;8.82;;;;;;;7.41;72.94;100067.03;5085681;28;20393;-81
2021/11/21 11:10:26;;;;;;;11.15;8.43;;;;;;;7.47;72.17;100066.09;5088214;28;20401;-81
2021/11/21 11:12:58;;;;;;;11.88;8.70;;;;;;;7.28;73.47;100060.78;5070284;28;20386;-81
2021/11/21 11:15:25;;;;;;;10.93;8.15;;;;;;;7.20;73.82;100060.31;5088745;28;20410;-81
2021/11/21 11:17:51;;;;;;;10.77;8.57;;;;;;;7.16;73.81;100054.56;5088895;28;20433;-81
2021/11/21 11:20:20;;;;;;;10.43;7.93;;;;;;;7.25;74.13;100055.88;5088836;28;20433;-81
2021/11/21 11:22:46;;;;;;;10.18;8.00;;;;;;;7.11;74.48;100050.94;5088960;28;20765;-81
2021/11/21 11:25:21;;;;;;;9.82;8.13;;;;;;;7.23;73.35;100052.59;5089485;28;20414;-81
2021/11/21 11:27:48;;;;;;;9.48;8.05;;;;;;;7.32;72.72;100043.09;5085394;28;20405;-80